Time;durP1;ratioP1;P1;durP2;ratioP2;P2;SDS_P1;SDS_P2;PMS_P1;PMS_P2;Temp;Humidity;BMP_temperature;BMP_pressure;BME280_temperature;BME280_humidity;BME280_pressure;Samples;Min_cycle;Max_cycle;Signal;HPM_P1;HPM_P2
2024/03/30 00:00:03;;;;;;;36.25;4.60;;;;;;;13.75;65.31;98225.94;4993707;28;20046;-96
2024/03/30 00:02:30;;;;;;;34.63;4.22;;;;;;;12.85;66.81;98099.38;4979824;28;20089;-96
2024/03/30 00:04:56;;;;;;;27.45;3.17;;;;;;;13.37;65.95;98173.50;4978127;28;20502;-96
2024/03/30 00:07:25;;;;;;;30.67;3.90;;;;;;;13.53;65.49;98217.22;4980760;28;20509;-95
2024/03/30 00:09:56;;;;;;;42.53;5.10;;;;;;;13.56;66.47;98230.44;4983977;28;20142;-96
2024/03/30 00:12:23;;;;;;;28.35;4.22;;;;;;;13.08;65.38;98122.31;4980734;28;20054;-95
2024/03/30 00:14:50;;;;;;;31.10;4.75;;;;;;;13.64;66.27;98220.25;4981735;28;20074;-96
2024/03/30 00:17:16;;;;;;;36.70;5.90;;;;;;;13.14;65.78;98136.25;4980459;28;20520;-96
2024/03/30 00:19:42;;;;;;;33.85;4.28;;;;;;;12.97;65.17;98116.59;4980533;28;20054;-96
2024/03/30 00:22:08;;;;;;;50.78;6.53;;;;;;;12.66;65.11;98062.88;4979716;28;20474;-96
2024/03/30 00:24:35;;;;;;;49.97;5.97;;;;;;;12.68;63.43;98052.16;4978522;28;20050;-96
2024/03/30 00:27:03;;;;;;;30.60;4.45;;;;;;;13.32;65.66;98171.03;4981875;28;20043;-96
2024/03/30 00:29:29;;;;;;;41.65;4.75;;;;;;;12.74;64.70;98066.06;4983316;28;20039;-95
2024/03/30 00:31:54;;;;;;;46.42;6.13;;;;;;;12.80;65.44;98094.25;4978868;28;20049;-96
2024/03/30 00:34:23;;;;;;;44.78;4.40;;;;;;;12.80;64.54;98064.91;4979065;28;20047;-96
2024/03/30 00:36:49;;;;;;;44.20;4.80;;;;;;;13.58;65.14;98209.00;4978747;28;20051;-96
2024/03/30 00:39:15;;;;;;;41.75;4.55;;;;;;;13.69;64.36;98198.66;4978866;28;20082;-96
2024/03/30 00:41:41;;;;;;;34.13;5.00;;;;;;;13.52;66.31;98194.13;4978725;28;20074;-96
2024/03/30 00:44:09;;;;;;;30.67;4.65;;;;;;;13.03;66.66;98124.31;4978343;28;20046;-96
2024/03/30 00:46:37;;;;;;;41.78;5.45;;;;;;;13.48;66.06;98209.41;4987885;28;20042;-94
2024/03/30 00:49:03;;;;;;;33.08;4.10;;;;;;;12.91;67.55;98110.63;4990633;28;20051;-94
2024/03/30 00:51:29;;;;;;;46.90;4.95;;;;;;;12.77;66.21;98106.88;4986489;28;20077;-96
2024/03/30 00:53:55;;;;;;;36.67;4.75;;;;;;;12.56;66.33;98048.28;4978424;28;20074;-96
2024/03/30 00:56:21;;;;;;;27.98;4.25;;;;;;;13.42;66.72;98187.47;4977572;28;20047;-96
2024/03/30 00:58:47;;;;;;;34.75;5.18;;;;;;;12.86;67.12;98102.00;4977791;28;20512;-96
2024/03/30 01:01:16;;;;;;;36.13;4.60;;;;;;;13.11;66.79;98146.19;4978278;28;20046;-96
2024/03/30 01:03:43;;;;;;;46.75;5.57;;;;;;;13.14;67.08;98178.06;4978072;28;20113;-96
2024/03/30 01:06:09;;;;;;;37.45;6.13;;;;;;;12.63;66.87;98091.53;4977548;28;20069;-94
2024/03/30 01:08:35;;;;;;;39.50;4.68;;;;;;;12.65;66.79;98082.50;4977252;28;20051;-95
2024/03/30 01:11:02;;;;;;;45.08;5.70;;;;;;;12.97;69.20;98169.97;4978575;28;20047;-96
2024/03/30 01:13:29;;;;;;;43.13;5.20;;;;;;;12.93;66.48;98174.63;4997008;28;20039;-96
2024/03/30 01:15:56;;;;;;;35.20;4.63;;;;;;;12.13;66.82;98032.44;4997821;28;20042;-95
2024/03/30 01:18:25;;;;;;;39.13;4.95;;;;;;;12.32;66.97;98050.28;4998656;28;20058;-96
2024/03/30 01:20:52;;;;;;;42.58;4.28;;;;;;;12.06;68.60;98000.81;4999190;28;20108;-96
2024/03/30 01:23:19;;;;;;;34.22;4.45;;;;;;;12.09;69.63;98049.50;4998617;28;20055;-96
2024/03/30 01:25:46;;;;;;;46.58;4.80;;;;;;;11.94;70.30;98026.19;4999661;28;20070;-96
2024/03/30 01:28:13;;;;;;;36.08;5.32;;;;;;;11.78;69.31;98009.13;5000568;28;20054;-96
2024/03/30 01:30:39;;;;;;;47.30;6.35;;;;;;;12.40;66.79;98108.56;4982498;28;20047;-96
2024/03/30 01:33:07;;;;;;;28.77;4.25;;;;;;;12.97;65.96;98148.63;4979453;28;20090;-96
2024/03/30 01:35:35;;;;;;;37.08;5.22;;;;;;;12.35;64.77;98027.94;4980215;28;20050;-96
2024/03/30 01:38:01;;;;;;;43.78;4.85;;;;;;;12.37;63.52;98002.06;4982144;28;20050;-96
2024/03/30 01:40:32;;;;;;;42.50;4.93;;;;;;;13.19;61.58;98095.97;4988383;28;20054;-96
2024/03/30 01:42:58;;;;;;;47.83;4.72;;;;;;;12.91;62.19;98025.25;4980975;28;20047;-96
2024/03/30 01:45:26;;;;;;;33.67;4.78;;;;;;;12.91;63.92;98016.38;4983294;28;20047;-96
2024/03/30 01:47:53;;;;;;;35.22;4.45;;;;;;;13.58;66.20;98161.78;4983047;28;20146;-96
2024/03/30 01:50:19;;;;;;;47.83;4.45;;;;;;;13.47;65.93;98150.75;4982614;28;20058;-96
2024/03/30 01:52:47;;;;;;;48.35;5.07;;;;;;;13.50;65.56;98153.25;4981108;28;20086;-96
2024/03/30 01:55:13;;;;;;;40.20;4.28;;;;;;;13.24;66.36;98142.00;4982512;28;20051;-96
2024/03/30 01:57:39;;;;;;;33.95;4.63;;;;;;;12.65;64.47;97996.28;4980090;28;20043;-96
2024/03/30 02:00:09;;;;;;;39.83;4.63;;;;;;;12.42;64.25;97968.03;4979029;28;20077;-95
2024/03/30 02:02:35;;;;;;;34.90;6.60;;;;;;;13.50;64.81;98123.88;4979496;28;20413;-95
2024/03/30 02:05:02;;;;;;;33.95;3.80;;;;;;;13.39;65.28;98102.19;4979922;28;20054;-96
2024/03/30 02:07:28;;;;;;;34.85;5.05;;;;;;;13.52;67.13;98116.66;4980235;28;20050;-95
2024/03/30 02:09:56;;;;;;;41.38;4.88;;;;;;;13.33;66.28;98109.53;4979963;28;20104;-96
2024/03/30 02:12:22;;;;;;;41.13;5.10;;;;;;;12.53;69.23;97990.59;4980363;28;20075;-96
2024/03/30 02:14:49;;;;;;;43.60;5.50;;;;;;;12.42;70.47;97992.03;4981188;28;20064;-96
2024/03/30 02:17:15;;;;;;;41.72;4.57;;;;;;;12.83;68.60;98062.09;4980575;28;20051;-96
2024/03/30 02:19:44;;;;;;;43.95;5.55;;;;;;;12.33;67.72;98033.31;4980123;28;20129;-96
2024/03/30 02:22:10;;;;;;;35.45;5.00;;;;;;;12.77;69.11;98113.06;4980410;28;20090;-95
2024/03/30 02:24:38;;;;;;;51.05;7.88;;;;;;;12.91;66.99;98109.78;4980860;28;20123;-96
2024/03/30 02:27:04;;;;;;;38.95;5.40;;;;;;;13.04;66.17;98118.94;4979653;28;20098;-95
2024/03/30 02:29:32;;;;;;;28.67;3.40;;;;;;;13.11;68.04;98115.00;4978734;28;20097;-96
2024/03/30 02:31:58;;;;;;;39.80;4.43;;;;;;;12.00;72.72;97961.13;4980132;28;20046;-96
2024/03/30 02:34:25;;;;;;;38.72;4.57;;;;;;;11.91;74.00;97965.06;4980481;28;20047;-96
2024/03/30 02:36:52;;;;;;;44.75;4.85;;;;;;;12.25;73.11;98023.03;4981443;28;20047;-96
2024/03/30 02:39:18;;;;;;;36.42;4.63;;;;;;;12.88;74.00;98104.56;4990231;28;20078;-94
2024/03/30 02:41:45;;;;;;;44.28;4.82;;;;;;;11.91;73.74;97965.06;4996702;28;20039;-94
2024/03/30 02:44:11;;;;;;;34.90;5.22;;;;;;;12.68;73.23;98100.16;4997287;28;20047;-94
2024/03/30 02:46:37;;;;;;;24.80;3.88;;;;;;;12.67;75.51;98103.78;4996614;28;20074;-94
2024/03/30 02:49:03;;;;;;;30.00;3.97;;;;;;;11.84;75.67;97960.88;4987369;28;20054;-96
2024/03/30 02:51:29;;;;;;;36.47;6.00;;;;;;;12.39;73.78;98105.03;4981759;28;20387;-96
2024/03/30 02:53:55;;;;;;;44.38;6.32;;;;;;;11.51;71.27;97967.69;4994062;28;20039;-96
2024/03/30 02:56:21;;;;;;;62.58;5.90;;;;;;;12.29;72.04;98085.91;4984508;28;20046;-96
2024/03/30 02:58:49;;;;;;;39.33;4.90;;;;;;;12.45;72.04;98101.25;4998651;28;20046;-96
2024/03/30 03:01:15;;;;;;;49.67;6.35;;;;;;;12.39;72.37;98091.69;4997557;28;20506;-96
2024/03/30 03:03:41;;;;;;;38.40;5.45;;;;;;;11.79;71.83;98003.72;4997103;28;20146;-95
2024/03/30 03:06:07;;;;;;;35.42;4.88;;;;;;;11.89;70.98;98058.38;4996669;28;20046;-96
2024/03/30 03:08:33;;;;;;;53.08;5.97;;;;;;;11.93;70.72;98048.44;4997178;28;20042;-96
2024/03/30 03:10:59;;;;;;;34.50;3.90;;;;;;;11.67;72.27;98018.47;4996796;28;20074;-96
2024/03/30 03:13:25;;;;;;;35.97;3.65;;;;;;;11.82;72.63;98037.34;4996588;28;20078;-96
2024/03/30 03:15:52;;;;;;;42.60;4.65;;;;;;;11.26;71.06;97946.56;4996393;28;20046;-96
2024/03/30 03:18:18;;;;;;;48.55;6.80;;;;;;;12.04;71.57;98085.28;4997081;28;20062;-96
2024/03/30 03:20:45;;;;;;;38.60;7.05;;;;;;;11.88;70.74;98050.44;4992533;28;20073;-96
2024/03/30 03:23:11;;;;;;;47.97;5.85;;;;;;;10.94;70.37;97928.44;4977118;28;20058;-96
2024/03/30 03:25:36;;;;;;;38.97;4.88;;;;;;;11.97;71.25;98084.69;4977161;28;20578;-95
2024/03/30 03:28:03;;;;;;;32.83;4.50;;;;;;;11.48;71.03;97996.22;4977661;28;20141;-96
2024/03/30 03:30:31;;;;;;;45.05;5.68;;;;;;;11.84;69.91;98075.44;4977697;28;20046;-96
2024/03/30 03:33:00;;;;;;;36.42;4.93;;;;;;;11.87;71.13;98084.19;4977647;28;20042;-95
2024/03/30 03:35:26;;;;;;;36.10;5.35;;;;;;;11.97;69.95;98070.47;4983936;28;20101;-95
2024/03/30 03:37:52;;;;;;;39.70;4.68;;;;;;;11.18;70.13;97926.53;4984816;28;20438;-96
2024/03/30 03:40:18;;;;;;;45.13;4.70;;;;;;;12.05;70.48;98065.69;4997180;28;20062;-95
2024/03/30 03:42:44;;;;;;;35.85;5.03;;;;;;;11.83;70.12;98057.75;4997058;28;20401;-96
2024/03/30 03:45:10;;;;;;;49.90;4.60;;;;;;;11.08;70.67;97910.09;4996731;28;20043;-96
2024/03/30 03:47:36;;;;;;;38.80;4.45;;;;;;;11.45;70.98;97965.28;4996944;28;20042;-96
2024/03/30 03:50:04;;;;;;;37.42;5.22;;;;;;;11.92;70.89;98041.38;5006220;28;20042;-94
2024/03/30 03:52:30;;;;;;;52.97;4.88;;;;;;;12.14;69.73;98049.28;5012065;28;20038;-94
2024/03/30 03:54:56;;;;;;;31.80;3.53;;;;;;;12.13;70.92;98051.09;4992449;28;20050;-96
2024/03/30 03:57:22;;;;;;;46.95;5.55;;;;;;;10.92;69.66;97903.72;4978345;28;20050;-96
2024/03/30 03:59:50;;;;;;;31.55;5.57;;;;;;;11.94;68.57;98052.84;4976977;28;20039;-96
2024/03/30 04:02:16;;;;;;;31.48;4.30;;;;;;;11.55;69.43;97965.72;4978370;28;20047;-96
2024/03/30 04:04:42;;;;;;;44.20;5.30;;;;;;;11.75;69.84;97986.16;4988619;28;20088;-96
2024/03/30 04:07:09;;;;;;;39.55;4.90;;;;;;;12.12;72.01;98054.69;4997076;28;20525;-96
2024/03/30 04:09:36;;;;;;;33.40;4.03;;;;;;;11.09;73.42;97894.06;4997340;28;20077;-96
2024/03/30 04:12:02;;;;;;;35.60;5.20;;;;;;;11.86;74.99;98052.25;4997865;28;20074;-96
2024/03/30 04:14:28;;;;;;;43.65;4.40;;;;;;;11.37;75.09;97975.38;4998743;28;20490;-96
2024/03/30 04:16:54;;;;;;;42.00;6.40;;;;;;;10.77;77.38;97914.03;4997251;28;20070;-95
2024/03/30 04:19:20;;;;;;;28.13;4.35;;;;;;;11.51;76.59;98065.31;4997228;28;20077;-96
2024/03/30 04:21:53;;;;;;;42.42;4.68;;;;;;;11.41;75.93;98056.00;4986371;28;20050;-96
2024/03/30 04:24:20;;;;;;;40.08;5.63;;;;;;;11.29;75.59;98052.03;4999171;28;20502;-95
2024/03/30 04:26:46;;;;;;;38.92;5.43;;;;;;;11.13;76.23;98049.16;5001039;28;20050;-96
2024/03/30 04:29:12;;;;;;;31.70;4.40;;;;;;;11.25;75.42;98059.25;5000579;28;20609;-95
2024/03/30 04:31:38;;;;;;;36.42;5.18;;;;;;;10.78;75.39;97998.25;4990088;28;20058;-95
2024/03/30 04:34:04;;;;;;;33.75;4.20;;;;;;;10.74;75.38;97961.19;4980276;28;20514;-95
2024/03/30 04:36:30;;;;;;;47.20;5.30;;;;;;;11.28;75.83;98051.16;4979850;28;20146;-96
2024/03/30 04:38:56;;;;;;;31.20;4.75;;;;;;;11.22;75.96;98045.25;4980536;28;20046;-96
2024/03/30 04:41:24;;;;;;;26.95;3.72;;;;;;;10.31;78.87;97896.47;4980075;28;20082;-96
2024/03/30 04:43:50;;;;;;;38.65;4.57;;;;;;;11.26;77.29;98047.69;4980560;28;20073;-96
2024/03/30 04:46:16;;;;;;;36.25;5.13;;;;;;;11.18;77.04;98038.31;4980112;28;20101;-96
2024/03/30 04:48:45;;;;;;;30.63;4.72;;;;;;;11.10;76.64;98047.47;4980338;28;20046;-96
2024/03/30 04:51:11;;;;;;;30.15;4.43;;;;;;;11.04;78.75;98047.72;4979555;28;20046;-95
2024/03/30 04:53:37;;;;;;;35.75;3.83;;;;;;;9.78;80.16;97887.84;4981672;28;20076;-96
2024/03/30 04:56:07;;;;;;;37.22;4.50;;;;;;;9.93;80.02;97906.75;4983400;28;20054;-96
2024/03/30 04:58:34;;;;;;;;;;;;;;;10.72;81.23;98043.69;4984782;28;20100;-96
2024/03/30 05:01:03;;;;;;;38.88;5.55;;;;;;;10.64;81.21;98038.66;4984816;28;20349;-96
2024/03/30 05:03:30;;;;;;;21.35;4.50;;;;;;;10.77;80.73;98044.34;4987020;28;20104;-96
2024/03/30 05:06:00;;;;;;;32.63;4.78;;;;;;;9.79;80.60;97875.44;4988706;28;20069;-96
2024/03/30 05:08:29;;;;;;;32.42;4.95;;;;;;;10.82;81.03;98037.09;4988383;28;20042;-96
2024/03/30 05:10:56;;;;;;;42.13;4.97;;;;;;;10.01;80.04;97892.25;4988892;28;20046;-96
2024/03/30 05:13:23;;;;;;;41.33;6.65;;;;;;;10.92;80.50;98031.38;4991976;28;20069;-96
2024/03/30 05:15:51;;;;;;;32.92;4.65;;;;;;;11.05;80.15;98041.47;4980689;28;20031;-96
2024/03/30 05:18:21;;;;;;;37.22;4.15;;;;;;;10.25;80.15;97909.00;4982802;28;20033;-96
2024/03/30 05:20:57;;;;;;;30.52;3.65;;;;;;;10.21;81.79;97901.22;4982006;28;20022;-95
2024/03/30 05:23:25;;;;;;;40.78;5.22;;;;;;;10.15;83.28;97875.78;4979323;28;20051;-96
2024/03/30 05:25:53;;;;;;;39.42;5.20;;;;;;;10.31;84.06;97907.94;4978927;28;20116;-96
2024/03/30 05:28:22;;;;;;;31.40;5.45;;;;;;;9.99;86.69;97891.44;4982228;28;20034;-96
2024/03/30 05:30:52;;;;;;;42.08;5.20;;;;;;;10.12;87.98;97934.34;4982637;28;20050;-96
2024/03/30 05:33:19;;;;;;;29.83;4.80;;;;;;;10.96;85.59;98033.84;4972305;29;20051;-96
2024/03/30 05:35:51;;;;;;;28.67;4.30;;;;;;;10.23;85.50;97907.34;4963128;29;20051;-96
2024/03/30 05:38:18;;;;;;;37.97;3.88;;;;;;;11.10;84.01;98030.63;4963483;29;20043;-96
2024/03/30 05:40:45;;;;;;;45.92;5.63;;;;;;;11.20;83.79;98037.31;4965644;29;20086;-96
2024/03/30 05:43:18;;;;;;;32.40;3.90;;;;;;;10.87;82.44;97941.16;4970328;29;20071;-95
2024/03/30 05:45:53;;;;;;;30.45;3.92;;;;;;;10.87;81.33;97927.84;4977000;29;20095;-96
2024/03/30 05:48:27;;;;;;;35.80;4.07;;;;;;;11.64;82.02;98033.69;4977910;29;20043;-96
2024/03/30 05:51:01;;;;;;;21.27;3.17;;;;;;;10.87;81.94;97875.50;4975917;28;20047;-96
2024/03/30 05:53:29;;;;;;;28.27;5.28;;;;;;;11.08;81.11;97891.47;4976581;29;20047;-96
2024/03/30 05:55:58;;;;;;;26.00;3.65;;;;;;;11.14;80.63;97885.88;4974879;29;20044;-96
2024/03/30 05:58:25;;;;;;;35.85;5.90;;;;;;;11.26;78.22;97871.19;4969778;29;20141;-96
2024/03/30 06:00:54;;;;;;;35.97;4.90;;;;;;;11.55;76.20;97891.16;4966600;28;20138;-96
2024/03/30 06:03:22;;;;;;;39.13;4.97;;;;;;;11.69;75.92;97896.75;4966644;29;20047;-96
2024/03/30 06:05:49;;;;;;;44.70;5.53;;;;;;;11.68;69.49;97878.16;4965530;29;20077;-96
2024/03/30 06:08:15;;;;;;;51.67;5.72;;;;;;;12.96;69.20;98035.69;4964338;29;20067;-96
2024/03/30 06:10:42;;;;;;;52.33;6.07;;;;;;;12.32;70.28;97888.50;4962790;29;20138;-96
2024/03/30 06:13:11;;;;;;;34.78;4.95;;;;;;;12.91;68.75;97963.00;4968843;29;20102;-96
2024/03/30 06:15:37;;;;;;;38.53;4.15;;;;;;;12.86;68.90;97938.34;4968124;29;20058;-96
2024/03/30 06:18:04;;;;;;;39.92;5.00;;;;;;;12.64;69.45;97898.53;4967557;29;20047;-96
2024/03/30 06:20:31;;;;;;;27.95;5.45;;;;;;;12.98;72.96;97932.41;4965277;29;20055;-96
2024/03/30 06:22:57;;;;;;;43.85;9.13;;;;;;;13.11;74.60;97949.50;4964772;28;20054;-96
2024/03/30 06:25:24;;;;;;;56.45;11.23;;;;;;;12.79;76.50;97915.56;4972772;28;20050;-96
2024/03/30 06:27:50;;;;;;;36.10;9.25;;;;;;;13.40;76.65;98018.44;4970701;28;20054;-96
2024/03/30 06:30:17;;;;;;;42.90;6.18;;;;;;;13.37;76.87;98014.13;4969922;28;20047;-96
2024/03/30 06:32:43;;;;;;;44.83;5.88;;;;;;;12.64;76.36;97893.19;4971618;28;20054;-96
2024/03/30 06:35:10;;;;;;;41.35;6.07;;;;;;;13.55;76.56;98023.00;4973305;28;20050;-96
2024/03/30 06:37:44;;;;;;;58.88;7.43;;;;;;;13.73;75.96;98018.53;4972408;28;20073;-96
2024/03/30 06:43:42;;;;;;;40.25;6.10;;;;;;;13.19;74.06;97886.88;5134990;27;20388;-96
2024/03/30 06:46:20;;;;;;;46.72;4.95;;;;;;;14.13;74.36;98009.25;5134396;28;20107;-96
2024/03/30 06:48:49;;;;;;;34.50;5.47;;;;;;;14.24;75.11;98010.50;5131595;28;20475;-96
2024/03/30 06:51:16;;;;;;;35.70;4.50;;;;;;;14.42;75.19;98009.50;5167393;27;20055;-96
2024/03/30 06:53:47;;;;;;;34.70;5.00;;;;;;;14.64;73.83;97995.84;5132817;28;20089;-95
2024/03/30 06:56:19;;;;;;;41.60;5.63;;;;;;;14.66;61.94;97985.91;5167202;27;20047;-94
2024/03/30 06:58:48;;;;;;;35.30;5.05;;;;;;;14.26;63.21;97872.22;5167949;27;20059;-96
2024/03/30 07:01:18;;;;;;;53.17;6.20;;;;;;;14.88;61.41;97980.19;5124559;28;20066;-96
2024/03/30 07:03:45;;;;;;;47.72;5.30;;;;;;;14.73;60.50;97890.09;5164289;27;20067;-96
2024/03/30 07:06:11;;;;;;;52.33;5.25;;;;;;;15.04;59.93;97953.41;5161824;27;20471;-96
2024/03/30 07:08:37;;;;;;;43.33;5.45;;;;;;;14.62;57.73;97844.38;5117943;28;20040;-96
2024/03/30 07:11:06;;;;;;;48.10;6.40;;;;;;;14.82;58.91;97857.44;5120389;28;20052;-96
2024/03/30 07:13:32;;;;;;;48.55;8.55;;;;;;;14.19;59.20;97842.28;5119352;28;20131;-96
2024/03/30 07:16:00;;;;;;;41.63;6.45;;;;;;;15.10;60.13;97966.44;5116820;28;20495;-96
2024/03/30 07:18:26;;;;;;;56.72;6.82;;;;;;;14.96;59.74;97904.78;5116000;28;20063;-96
2024/03/30 07:20:53;;;;;;;43.60;6.95;;;;;;;14.51;60.24;97839.59;5123695;28;20044;-96
2024/03/30 07:23:20;;;;;;;38.47;6.30;;;;;;;14.41;60.59;97847.28;5122304;28;20111;-96
2024/03/30 07:25:47;;;;;;;44.72;7.07;;;;;;;14.66;60.17;97838.75;5120059;28;20067;-96
2024/03/30 07:28:13;;;;;;;59.35;6.80;;;;;;;15.36;59.63;97953.31;5121137;28;20574;-96
2024/03/30 07:30:43;;;;;;;54.10;6.50;;;;;;;14.84;56.96;97839.47;5117262;28;20044;-96
2024/03/30 07:33:12;;;;;;;50.10;6.40;;;;;;;15.03;56.80;97897.25;5124505;28;20043;-96
2024/03/30 07:35:43;;;;;;;55.22;8.25;;;;;;;14.96;56.39;97865.50;5119403;28;20118;-96
2024/03/30 07:38:12;;;;;;;44.05;7.15;;;;;;;16.11;57.29;97951.47;5127233;28;20139;-96
2024/03/30 07:40:38;;;;;;;35.78;8.68;;;;;;;15.66;53.53;97830.00;5126498;28;20043;-96
2024/03/30 07:43:10;;;;;;;38.47;8.23;;;;;;;15.56;50.81;97832.38;5127469;28;20040;-96
2024/03/30 07:45:43;;;;;;;50.28;7.35;;;;;;;15.77;51.89;97853.50;5128932;28;20032;-96
2024/03/30 07:48:12;;;;;;;37.10;4.95;;;;;;;16.66;49.05;97959.63;5124650;28;20093;-96
2024/03/30 07:50:42;;;;;;;53.10;6.47;;;;;;;16.55;46.19;97872.59;5123893;28;20070;-96
2024/03/30 07:53:08;;;;;;;41.85;5.78;;;;;;;17.32;47.86;97934.63;5116618;28;20048;-95
2024/03/30 07:55:35;;;;;;;31.27;4.80;;;;;;;17.16;48.66;97850.69;5107400;28;20079;-96
2024/03/30 07:58:02;;;;;;;40.63;5.80;;;;;;;17.56;47.29;97866.72;5104605;28;20048;-96
2024/03/30 08:00:28;;;;;;;51.55;5.43;;;;;;;17.52;47.84;97817.72;5105466;28;20052;-96
2024/03/30 08:06:12;;;;;;;37.60;4.75;;;;;;;18.58;44.08;97943.78;5751306;22;20056;-96
2024/03/30 08:14:54;;;;;;;41.92;4.97;;;;;;;19.26;43.29;97943.22;5309546;22;20060;-96
2024/03/30 08:17:21;;;;;;;33.53;5.72;;;;;;;18.48;44.27;97836.78;5121225;28;20035;-96
2024/03/30 08:19:54;;;;;;;36.42;5.47;;;;;;;18.59;44.76;97814.44;5122092;28;20099;-96
2024/03/30 08:22:55;;;;;;;30.42;4.32;;;;;;;18.64;46.12;97819.47;5120724;28;20111;-96
2024/03/30 08:25:26;;;;;;;36.95;3.78;;;;;;;19.26;46.24;97888.47;5115829;28;20051;-96
2024/03/30 08:27:58;;;;;;;43.08;5.03;;;;;;;19.03;45.11;97818.31;5115254;28;20040;-96
2024/03/30 08:30:25;;;;;;;44.63;5.45;;;;;;;19.24;42.93;97828.44;5116741;28;20044;-96
2024/03/30 08:32:54;;;;;;;43.53;4.57;;;;;;;20.03;44.96;97940.00;5122452;28;20091;-95
2024/03/30 08:35:21;;;;;;;38.58;7.70;;;;;;;19.46;42.97;97817.69;5123240;28;20051;-95
2024/03/30 08:37:48;;;;;;;42.97;6.53;;;;;;;20.30;42.77;97936.13;5121427;28;20043;-95
2024/03/30 08:40:14;;;;;;;34.28;5.20;;;;;;;19.68;43.61;97826.78;5116198;28;20040;-96
2024/03/30 08:42:42;;;;;;;34.63;4.55;;;;;;;20.19;42.80;97898.31;5111430;28;20095;-96
2024/03/30 08:45:08;;;;;;;45.50;6.78;;;;;;;20.09;42.58;97868.50;5109286;28;20483;-96
2024/03/30 08:47:34;;;;;;;41.63;6.25;;;;;;;20.24;42.88;97885.31;5107600;28;20046;-96
2024/03/30 08:50:04;;;;;;;34.95;5.20;;;;;;;20.70;42.81;97932.91;5114650;28;20039;-96
2024/03/30 08:52:30;;;;;;;36.47;6.43;;;;;;;20.64;42.14;97926.16;5116637;28;20063;-96
2024/03/30 08:54:56;;;;;;;41.20;4.60;;;;;;;20.80;42.42;97930.31;5115149;28;20143;-96
2024/03/30 08:57:23;;;;;;;35.75;4.53;;;;;;;20.54;42.36;97876.56;5180136;22;20040;-96
2024/03/30 09:02:46;;;;;;;37.92;4.82;;;;;;;20.47;42.92;97822.19;5165139;22;20059;-96
2024/03/30 09:05:12;;;;;;;28.70;4.40;;;;;;;20.56;42.06;97815.16;5102659;28;20048;-96
2024/03/30 09:13:49;;;;;;;35.60;5.03;;;;;;;21.01;42.45;97823.09;5225162;22;20062;-96
2024/03/30 09:16:40;;;;;;;37.22;6.10;;;;;;;21.08;41.94;97809.97;5769147;22;20035;-96
2024/03/30 09:23:28;;;;;;;34.03;4.82;;;;;;;21.68;41.26;97905.75;5064235;28;20097;-96
2024/03/30 09:31:10;;;;;;;26.70;6.05;;;;;;;21.19;41.16;97831.50;5418195;22;20086;-95
2024/03/30 09:33:38;;;;;;;36.38;5.53;;;;;;;21.91;41.39;97890.22;5160885;22;20060;-94
2024/03/30 09:36:08;;;;;;;38.92;4.30;;;;;;;21.77;39.85;97838.28;5068063;28;20049;-94
2024/03/30 09:38:34;;;;;;;30.48;4.10;;;;;;;22.20;39.48;97869.69;5053093;28;20573;-96
2024/03/30 09:41:03;;;;;;;35.30;3.80;;;;;;;21.66;39.63;97755.34;5066955;28;20416;-94
2024/03/30 09:43:32;;;;;;;;;;;;;;;22.34;39.43;97840.41;5057331;28;20044;-96
2024/03/30 09:46:01;;;;;;;30.85;4.13;;;;;;;22.05;39.67;97769.88;5050028;28;19925;-96
2024/03/30 09:51:11;;;;;;;39.58;4.00;;;;;;;21.78;39.31;97708.28;5377248;22;20062;-96
2024/03/30 09:53:45;;;;;;;31.58;5.20;;;;;;;21.96;40.62;97705.75;5100363;28;20043;-96
2024/03/30 09:57:10;;;;;;;40.33;3.72;;;;;;;21.98;39.15;97708.31;5113170;28;20036;-95
2024/03/30 09:59:45;;;;;;;37.55;4.82;;;;;;;21.11;39.37;97724.03;5119132;22;20053;-96
2024/03/30 10:02:26;;;;;;;26.73;4.13;;;;;;;22.23;38.46;97826.09;5652496;22;20059;-94
2024/03/30 10:17:39;;;;;;;28.13;4.35;;;;;;;23.04;38.12;97831.41;2069003;23;20328;-95
2024/03/30 10:26:21;;;;;;;38.13;3.53;;;;;;;22.79;35.58;97830.06;6017605;22;20832;-96
2024/03/30 10:31:33;;;;;;;37.42;4.88;;;;;;;22.36;35.82;97704.84;5568878;22;20039;-96
2024/03/30 10:34:04;;;;;;;33.40;3.88;;;;;;;22.47;34.30;97693.03;5110011;22;20073;-96
2024/03/30 10:36:37;;;;;;;26.50;4.07;;;;;;;22.34;35.18;97737.50;5052626;28;20049;-96
2024/03/30 10:39:23;;;;;;;34.42;3.78;;;;;;;22.00;37.07;97704.47;5059644;28;20116;-96
2024/03/30 10:41:57;;;;;;;38.00;4.53;;;;;;;21.80;37.54;97773.94;5070625;28;20063;-96
2024/03/30 10:55:27;;;;;;;38.47;5.25;;;;;;;21.74;39.07;97661.69;5060930;28;20040;-96
2024/03/30 10:57:56;;;;;;;29.40;3.25;;;;;;;22.27;40.51;97735.47;5036876;28;20086;-95
2024/03/30 11:00:23;;;;;;;33.22;5.20;;;;;;;21.39;38.29;97661.28;5033680;28;20052;-95
2024/03/30 11:02:53;;;;;;;26.52;4.22;;;;;;;22.49;38.69;97781.28;5040584;28;20139;-94
2024/03/30 11:05:20;;;;;;;33.67;5.15;;;;;;;22.71;38.82;97785.56;5051441;28;20030;-93
2024/03/30 11:07:48;;;;;;;36.47;4.05;;;;;;;22.07;37.91;97672.28;5058055;28;20030;-95
2024/03/30 11:10:14;;;;;;;30.50;3.80;;;;;;;22.81;37.73;97768.44;5060833;28;20108;-95
2024/03/30 11:12:43;;;;;;;46.08;5.53;;;;;;;21.98;36.79;97640.66;5051870;28;20113;-96
2024/03/30 11:15:10;;;;;;;38.85;5.70;;;;;;;22.44;37.39;97655.38;5045296;28;20045;-96
2024/03/30 11:17:42;;;;;;;33.83;4.50;;;;;;;22.31;36.79;97637.53;5060774;28;20049;-96
2024/03/30 11:20:12;;;;;;;41.63;4.35;;;;;;;22.51;38.36;97634.81;5061041;28;20025;-96
2024/03/30 11:22:49;;;;;;;27.70;4.68;;;;;;;22.50;36.34;97761.31;5045964;28;20044;-96
2024/03/30 11:25:20;;;;;;;31.23;4.30;;;;;;;21.88;38.80;97641.50;5047256;28;20044;-96
2024/03/30 11:27:49;;;;;;;35.22;7.15;;;;;;;22.66;41.31;97749.03;5061289;28;20044;-96
2024/03/30 11:30:44;;;;;;;41.50;6.75;;;;;;;22.68;37.90;97663.03;5042899;28;20122;-96
2024/03/30 11:33:17;;;;;;;38.33;4.57;;;;;;;22.68;36.59;97690.13;5036875;28;20489;-96
2024/03/30 11:35:47;;;;;;;30.92;4.95;;;;;;;22.88;37.61;97691.84;5038414;28;20068;-96
2024/03/30 11:38:18;;;;;;;29.20;4.43;;;;;;;22.60;36.23;97715.25;5038512;28;20050;-96
2024/03/30 11:40:51;;;;;;;23.63;4.22;;;;;;;23.23;35.06;97731.03;5043327;28;20076;-96
2024/03/30 11:43:33;;;;;;;37.30;4.43;;;;;;;23.61;36.53;97739.19;5044027;28;20047;-96
2024/03/30 11:46:02;;;;;;;34.35;4.80;;;;;;;23.66;37.65;97739.59;5044831;28;20061;-95
2024/03/30 11:48:30;;;;;;;33.55;4.55;;;;;;;23.82;36.42;97750.72;5044076;28;20076;-96
2024/03/30 11:50:56;;;;;;;32.30;4.53;;;;;;;22.91;36.17;97622.91;5051302;28;20046;-96
2024/03/30 11:53:24;;;;;;;27.83;4.22;;;;;;;23.56;35.24;97698.94;5049182;28;20055;-95
2024/03/30 11:55:53;;;;;;;30.13;3.70;;;;;;;23.28;37.59;97641.09;5046108;28;20049;-92
2024/03/30 11:58:20;;;;;;;27.05;5.18;;;;;;;23.47;34.81;97624.72;5050434;28;20030;-96
2024/03/30 12:00:51;;;;;;;32.20;4.80;;;;;;;24.36;34.98;97734.53;5043785;28;20144;-96
2024/03/30 12:03:20;;;;;;;32.13;4.82;;;;;;;23.43;34.20;97646.88;5046995;28;20053;-96
2024/03/30 12:05:52;;;;;;;31.48;4.53;;;;;;;23.45;34.79;97656.56;5044040;28;20080;-96
2024/03/30 12:08:21;;;;;;;24.58;4.50;;;;;;;23.86;35.11;97721.41;5042459;28;20055;-94
2024/03/30 12:11:20;;;;;;;27.50;3.92;;;;;;;23.85;36.28;97722.41;5030066;28;20046;-96
2024/03/30 12:13:47;;;;;;;25.55;4.25;;;;;;;23.11;35.37;97602.03;5042956;28;20044;-96
2024/03/30 12:16:16;;;;;;;33.47;3.47;;;;;;;22.82;35.61;97573.16;5061503;28;20054;-96
2024/03/30 12:19:03;;;;;;;24.00;3.60;;;;;;;22.94;36.49;97584.66;5066065;28;20045;-95
2024/03/30 12:21:31;;;;;;;;;;;;;;;23.65;35.74;97692.59;5055274;28;20041;-96
2024/03/30 12:24:01;;;;;;;23.35;3.20;;;;;;;23.79;35.39;97688.59;5053286;28;19921;-96
2024/03/30 12:26:48;;;;;;;25.98;2.50;;;;;;;23.49;33.92;97652.56;5051482;28;20046;-96
2024/03/30 12:29:16;;;;;;;22.25;2.90;;;;;;;23.82;34.15;97690.97;5045553;28;20046;-96
2024/03/30 12:32:10;;;;;;;34.47;4.35;;;;;;;22.52;30.27;97548.00;5048653;28;20065;-96
2024/03/30 12:34:41;;;;;;;21.38;2.90;;;;;;;23.56;30.38;97693.50;5055690;28;20046;-96
2024/03/30 12:37:15;;;;;;;22.08;2.85;;;;;;;23.22;28.66;97630.81;5046586;28;20568;-96
2024/03/30 12:39:46;;;;;;;21.77;3.58;;;;;;;23.47;28.43;97695.25;5042070;28;20033;-95